Time;durP1;ratioP1;P1;durP2;ratioP2;P2;SDS_P1;SDS_P2;PMS_P1;PMS_P2;Temp;Humidity;BMP_temperature;BMP_pressure;BME280_temperature;BME280_humidity;BME280_pressure;Samples;Min_cycle;Max_cycle;Signal;HPM_P1;HPM_P2
2021/11/07 00:00:28;;;;;;;98.17;13.98;;;;;;;3.27;100.00;101728.91;1774530;80;21137;-43
2021/11/07 00:03:09;;;;;;;82.47;13.18;;;;;;;3.23;100.00;101725.36;1774178;80;20979;-44
2021/11/07 00:05:37;;;;;;;72.05;11.50;;;;;;;3.19;100.00;101724.81;1774220;80;20929;-43
2021/11/07 00:08:22;;;;;;;74.03;12.93;;;;;;;3.18;100.00;101726.05;1774049;80;20984;-43
2021/11/07 00:10:44;;;;;;;54.93;11.18;;;;;;;3.18;100.00;101725.63;1774421;80;21032;-44
2021/11/07 00:13:24;;;;;;;72.37;13.65;;;;;;;3.16;100.00;101726.88;1774162;80;21170;-44
2021/11/07 00:15:49;;;;;;;76.92;14.18;;;;;;;3.19;100.00;101727.80;1774122;80;21003;-44
2021/11/07 00:18:19;;;;;;;62.73;12.85;;;;;;;3.19;100.00;101726.52;1752319;80;21003;-44
2021/11/07 00:20:52;;;;;;;69.40;12.55;;;;;;;3.19;100.00;101723.53;1774412;80;20983;-43
2021/11/07 00:23:26;;;;;;;61.73;12.70;;;;;;;3.19;100.00;101725.23;1774294;80;21423;-44
2021/11/07 00:25:48;;;;;;;54.93;11.65;;;;;;;3.18;100.00;101728.62;1774384;80;21169;-44
2021/11/07 00:28:25;;;;;;;50.50;11.88;;;;;;;3.14;99.91;101727.64;1751983;80;21035;-43
2021/11/07 00:36:14;;;;;;;85.87;13.25;;;;;;;3.04;99.82;101730.73;1774382;80;21486;-44
2021/11/07 00:38:43;;;;;;;50.33;12.07;;;;;;;3.01;99.75;101727.64;1774382;80;21027;-43
2021/11/07 00:41:22;;;;;;;35.98;9.60;;;;;;;3.04;99.85;101723.91;1774266;80;21079;-43
2021/11/07 00:43:41;;;;;;;48.48;9.93;;;;;;;3.01;99.58;101721.25;1771291;80;21011;-43
2021/11/07 00:46:10;;;;;;;33.90;9.85;;;;;;;2.98;99.69;101726.27;1773908;80;20932;-44
2021/11/07 00:48:57;;;;;;;39.18;10.72;;;;;;;2.97;99.71;101727.09;1774046;80;20980;-44
2021/11/07 00:51:12;;;;;;;48.02;11.57;;;;;;;2.93;99.69;101724.83;1766406;80;21533;-44
2021/11/07 00:54:05;;;;;;;41.20;10.78;;;;;;;2.90;99.77;101714.49;1773774;80;21499;-44
2021/11/07 00:56:31;;;;;;;36.85;11.45;;;;;;;2.94;99.76;101716.75;1774372;80;21016;-44
2021/11/07 01:01:22;;;;;;;45.48;10.48;;;;;;;3.03;99.75;101719.61;1774168;80;21541;-44
2021/11/07 01:03:50;;;;;;;72.30;12.30;;;;;;;3.05;99.43;101723.51;1774291;80;21219;-44
2021/11/07 01:06:17;;;;;;;48.60;10.58;;;;;;;3.00;99.33;101718.23;1774305;80;20937;-44
2021/11/07 01:08:44;;;;;;;36.03;8.33;;;;;;;3.00;99.18;101722.06;1774225;80;20945;-44
2021/11/07 01:11:10;;;;;;;16.93;7.05;;;;;;;2.98;99.05;101722.00;1774269;80;21015;-44
2021/11/07 01:13:37;;;;;;;18.17;7.78;;;;;;;2.96;98.90;101718.53;1774269;80;21892;-43
2021/11/07 01:16:06;;;;;;;42.62;9.38;;;;;;;2.95;98.95;101725.74;1774010;80;21047;-44
2021/11/07 01:18:33;;;;;;;40.83;9.35;;;;;;;2.99;98.86;101722.89;1774114;80;20975;-43
2021/11/07 01:20:59;;;;;;;83.82;10.50;;;;;;;3.04;98.43;101725.18;1774166;80;20988;-43
2021/11/07 01:23:40;;;;;;;81.17;11.05;;;;;;;3.07;97.84;101720.59;1774132;80;20964;-44
2021/11/07 01:26:10;;;;;;;106.00;12.28;;;;;;;3.11;97.55;101724.55;1774509;80;20885;-44
2021/11/07 01:28:38;;;;;;;192.90;16.50;;;;;;;3.12;97.40;101726.72;1774701;80;21176;-44
2021/11/07 01:31:00;;;;;;;314.77;16.40;;;;;;;3.10;97.22;101724.52;1774406;80;21482;-44
2021/11/07 01:33:29;;;;;;;168.15;15.85;;;;;;;3.14;96.98;101723.80;1774567;80;21447;-43
2021/11/07 01:36:08;;;;;;;107.47;12.68;;;;;;;3.12;96.72;101716.48;1774385;80;20956;-44
2021/11/07 01:38:27;;;;;;;49.58;10.13;;;;;;;3.11;96.58;101716.88;1733039;81;20976;-44
2021/11/07 01:41:17;;;;;;;77.42;12.65;;;;;;;3.08;96.49;101718.06;1754106;81;21231;-44
2021/11/07 01:43:30;;;;;;;56.65;10.45;;;;;;;3.09;96.37;101717.67;1752652;81;21537;-44
2021/11/07 01:48:40;;;;;;;60.43;9.50;;;;;;;3.10;95.81;101712.58;1754042;81;20986;-43
2021/11/07 01:51:01;;;;;;;63.48;9.73;;;;;;;3.11;95.78;101710.48;1754000;81;20928;-44
2021/11/07 01:53:36;;;;;;;84.25;12.13;;;;;;;3.10;95.62;101713.86;1753868;81;21336;-44
2021/11/07 01:56:09;;;;;;;69.67;11.63;;;;;;;3.06;95.40;101710.75;1753965;81;20956;-44
2021/11/07 01:58:37;;;;;;;96.57;11.48;;;;;;;3.05;95.36;101710.29;1753461;81;21462;-44
2021/11/07 02:01:04;;;;;;;62.23;10.05;;;;;;;3.06;95.23;101702.22;1753884;81;21652;-44
2021/11/07 02:03:33;;;;;;;71.22;12.37;;;;;;;3.11;94.93;101703.23;1753988;81;20948;-44
2021/11/07 02:06:01;;;;;;;32.13;8.60;;;;;;;3.15;94.56;101706.34;1754096;81;21138;-44
2021/11/07 02:08:29;;;;;;;29.27;9.20;;;;;;;3.13;94.25;101699.03;1754160;81;21549;-44
2021/11/07 02:10:56;;;;;;;28.42;7.65;;;;;;;3.16;94.10;101698.73;1754027;80;20932;-44
2021/11/07 02:13:24;;;;;;;67.58;9.95;;;;;;;3.13;94.10;101697.75;1754061;81;21030;-43
2021/11/07 02:15:51;;;;;;;30.25;8.13;;;;;;;3.14;94.10;101699.48;1754016;81;20991;-44
2021/11/07 02:18:18;;;;;;;23.10;7.37;;;;;;;3.13;93.88;101697.33;1753875;81;21675;-44
2021/11/07 02:20:46;;;;;;;59.13;10.15;;;;;;;3.09;93.90;101701.03;1753936;81;20948;-44
2021/11/07 02:23:16;;;;;;;36.38;9.40;;;;;;;3.06;94.00;101699.23;1754118;81;20967;-43
2021/11/07 02:25:43;;;;;;;34.95;8.63;;;;;;;3.04;94.07;101697.47;1754217;80;20943;-44
2021/11/07 02:28:10;;;;;;;36.53;9.33;;;;;;;3.02;94.09;101699.95;1754036;81;20905;-44
2021/11/07 02:30:38;;;;;;;39.85;8.98;;;;;;;3.03;94.22;101691.46;1754372;81;21068;-44
2021/11/07 02:33:05;;;;;;;36.73;9.08;;;;;;;3.05;94.20;101697.50;1748882;81;20997;-43
2021/11/07 02:35:33;;;;;;;20.92;7.80;;;;;;;3.07;94.25;101700.12;1753886;81;21096;-44
2021/11/07 02:38:00;;;;;;;91.20;13.60;;;;;;;3.08;94.19;101695.03;1762122;80;20980;-44
2021/11/07 02:40:26;;;;;;;81.50;11.50;;;;;;;3.11;94.19;101692.56;1778075;80;21030;-43
2021/11/07 02:42:53;;;;;;;94.52;12.28;;;;;;;3.12;94.20;101694.73;1774291;80;21794;-43
2021/11/07 02:45:21;;;;;;;62.78;10.88;;;;;;;3.13;94.15;101687.52;1774190;80;20952;-44
2021/11/07 02:47:49;;;;;;;40.08;9.13;;;;;;;3.11;94.13;101684.89;1774343;80;20928;-43
2021/11/07 02:50:17;;;;;;;53.92;11.03;;;;;;;3.12;94.06;101683.22;1774372;80;20940;-44
2021/11/07 02:52:45;;;;;;;85.57;12.75;;;;;;;3.12;94.02;101678.10;1778171;79;21537;-43
2021/11/07 02:55:12;;;;;;;75.17;12.70;;;;;;;3.13;94.01;101678.56;1774312;80;21136;-44
2021/11/07 02:57:38;;;;;;;84.28;12.75;;;;;;;3.14;94.00;101683.70;1774286;80;20901;-44
2021/11/07 03:00:10;;;;;;;30.35;8.43;;;;;;;3.16;93.83;101679.53;1774224;80;21234;-44
2021/11/07 03:02:36;;;;;;;21.55;9.50;;;;;;;3.20;93.79;101678.35;1774202;80;20944;-44
2021/11/07 03:05:09;;;;;;;49.77;10.10;;;;;;;3.20;93.77;101679.62;1778060;80;21023;-43
2021/11/07 03:07:35;;;;;;;22.93;8.43;;;;;;;3.20;93.80;101683.47;1774197;80;21762;-43
2021/11/07 03:10:05;;;;;;;25.10;7.85;;;;;;;3.20;93.80;101688.16;1774585;80;20999;-43
2021/11/07 03:12:31;;;;;;;22.60;7.72;;;;;;;3.25;93.61;101689.59;1777658;80;20940;-44
2021/11/07 03:15:00;;;;;;;34.20;8.80;;;;;;;3.26;93.48;101685.78;1774452;80;21003;-43
2021/11/07 03:17:27;;;;;;;36.20;9.60;;;;;;;3.25;93.37;101689.59;1774106;80;20940;-44
2021/11/07 03:19:53;;;;;;;49.90;10.05;;;;;;;3.24;93.40;101683.59;1774656;80;21055;-44
2021/11/07 03:22:26;;;;;;;66.42;11.73;;;;;;;3.25;93.37;101688.31;1778160;80;21493;-44
2021/11/07 03:24:54;;;;;;;21.37;7.58;;;;;;;3.24;93.30;101685.30;1774493;80;20999;-44
2021/11/07 03:27:35;;;;;;;29.98;8.70;;;;;;;3.22;93.19;101682.67;1774197;80;21530;-44
2021/11/07 03:30:05;;;;;;;24.25;7.92;;;;;;;3.24;93.17;101685.30;1774283;80;20933;-43
2021/11/07 03:32:32;;;;;;;47.55;9.98;;;;;;;3.23;93.14;101684.84;1774232;80;21210;-43
2021/11/07 03:35:03;;;;;;;70.55;11.90;;;;;;;3.24;93.17;101678.90;1774478;80;20980;-44
2021/11/07 03:37:35;;;;;;;53.87;10.72;;;;;;;3.26;93.10;101673.42;1774051;80;21494;-44
2021/11/07 03:39:59;;;;;;;77.92;11.25;;;;;;;3.27;92.95;101673.45;1751903;80;20925;-44
2021/11/07 03:42:27;;;;;;;63.92;10.50;;;;;;;3.27;92.85;101673.87;1774206;80;21542;-44
2021/11/07 03:44:54;;;;;;;64.05;9.70;;;;;;;3.32;92.40;101669.77;1774238;80;21047;-43
2021/11/07 03:47:20;;;;;;;67.08;10.70;;;;;;;3.31;92.21;101664.19;1774275;80;20964;-43
2021/11/07 03:49:47;;;;;;;72.05;11.25;;;;;;;3.30;92.14;101673.57;1774521;80;20975;-43
2021/11/07 03:52:14;;;;;;;80.60;12.07;;;;;;;3.32;92.01;101674.88;1774262;80;20972;-43
2021/11/07 03:54:42;;;;;;;66.15;10.50;;;;;;;3.32;91.86;101673.59;1774322;80;20944;-44
2021/11/07 03:57:11;;;;;;;79.32;11.40;;;;;;;3.31;91.76;101670.58;1774192;80;21254;-44
2021/11/07 03:59:40;;;;;;;80.90;12.18;;;;;;;3.28;91.66;101673.94;1774410;80;20897;-43
2021/11/07 04:02:08;;;;;;;38.90;9.38;;;;;;;3.22;91.68;101677.56;1774327;80;20980;-44
2021/11/07 04:04:34;;;;;;;22.82;7.70;;;;;;;3.22;91.68;101677.56;1774031;80;20988;-43
2021/11/07 04:07:01;;;;;;;16.85;7.47;;;;;;;3.26;91.68;101678.53;1774146;80;21018;-44
2021/11/07 04:09:28;;;;;;;26.50;7.95;;;;;;;3.25;91.61;101673.81;1774281;80;21850;-44
2021/11/07 04:11:55;;;;;;;29.57;8.40;;;;;;;3.26;91.53;101670.86;1774472;80;20976;-44
2021/11/07 04:14:21;;;;;;;26.97;7.40;;;;;;;3.27;91.49;101678.99;1777783;80;20999;-43
2021/11/07 04:16:47;;;;;;;18.60;7.35;;;;;;;3.19;91.41;101674.05;1774174;80;20971;-44
2021/11/07 04:19:14;;;;;;;12.18;6.83;;;;;;;3.09;91.74;101675.45;1774308;80;20984;-43
2021/11/07 04:21:44;;;;;;;14.53;7.17;;;;;;;2.99;92.07;101672.58;1774245;80;21190;-44
2021/11/07 04:24:09;;;;;;;15.40;7.12;;;;;;;2.89;92.51;101675.66;1774122;80;20972;-44
2021/11/07 04:26:36;;;;;;;17.02;7.45;;;;;;;2.76;92.79;101679.50;1774527;80;21533;-44
2021/11/07 04:29:03;;;;;;;15.43;7.47;;;;;;;2.62;93.03;101687.11;1774038;80;20921;-44
2021/11/07 04:31:31;;;;;;;17.32;7.92;;;;;;;2.50;93.31;101677.33;1774305;80;20960;-43
2021/11/07 04:33:58;;;;;;;15.45;8.53;;;;;;;2.42;93.82;101679.22;1774582;80;21192;-43
2021/11/07 04:36:24;;;;;;;15.68;7.67;;;;;;;2.35;94.13;101677.27;1774150;80;20968;-44
2021/11/07 04:38:51;;;;;;;15.83;7.75;;;;;;;2.25;94.22;101686.69;1774107;80;21509;-44
2021/11/07 04:41:18;;;;;;;12.18;7.37;;;;;;;2.14;94.47;101683.75;1774283;80;21072;-43
2021/11/07 04:43:47;;;;;;;13.75;6.95;;;;;;;2.05;94.89;101698.76;1774200;80;20956;-43
2021/11/07 04:46:14;;;;;;;10.72;8.15;;;;;;;1.96;95.21;101696.34;1774173;80;21994;-43
2021/11/07 04:48:42;;;;;;;14.40;8.13;;;;;;;1.89;95.59;101689.66;1774197;80;21522;-43
2021/11/07 04:51:09;;;;;;;12.18;7.92;;;;;;;1.84;95.72;101690.38;1777443;80;20972;-43
2021/11/07 04:53:36;;;;;;;14.68;7.67;;;;;;;1.78;95.82;101689.27;1774157;80;21019;-43
2021/11/07 04:56:05;;;;;;;10.23;6.97;;;;;;;1.72;96.20;101684.78;1774243;80;20964;-44
2021/11/07 04:58:33;;;;;;;15.23;8.15;;;;;;;1.66;96.35;101689.28;1774326;80;21151;-43
2021/11/07 05:01:00;;;;;;;11.78;7.85;;;;;;;1.62;96.53;101692.92;1774401;80;20949;-43
2021/11/07 05:03:26;;;;;;;18.45;7.75;;;;;;;1.57;96.69;101694.90;1774369;80;20932;-43
2021/11/07 05:05:53;;;;;;;17.15;7.40;;;;;;;1.57;97.30;101700.00;1778394;80;21011;-43
2021/11/07 05:08:19;;;;;;;10.08;7.67;;;;;;;1.58;97.67;101700.86;1774472;80;20940;-43
2021/11/07 05:10:46;;;;;;;13.30;7.53;;;;;;;1.59;97.71;101705.14;1774564;80;21141;-43
2021/11/07 05:13:12;;;;;;;13.30;8.05;;;;;;;1.58;97.90;101709.40;1774394;80;20976;-44
2021/11/07 05:15:40;;;;;;;15.45;8.10;;;;;;;1.60;98.13;101699.65;1774473;80;20983;-43
2021/11/07 05:18:06;;;;;;;10.98;7.65;;;;;;;1.66;98.20;101704.59;1774337;80;20968;-43
2021/11/07 05:20:33;;;;;;;15.78;8.13;;;;;;;1.70;98.29;101706.45;1774507;80;21003;-43
2021/11/07 05:23:00;;;;;;;11.65;7.58;;;;;;;1.75;98.42;101711.70;1774483;80;21157;-43
2021/11/07 05:25:26;;;;;;;10.20;8.00;;;;;;;1.78;98.42;101709.69;1778463;79;20963;-43
2021/11/07 05:27:53;;;;;;;11.80;7.70;;;;;;;1.80;98.52;101713.17;1774220;80;20972;-43
2021/11/07 05:30:19;;;;;;;15.20;8.78;;;;;;;1.83;98.59;101707.78;1774637;80;20897;-43
2021/11/07 05:32:46;;;;;;;17.57;8.38;;;;;;;1.87;98.74;101707.47;1774346;80;21003;-44
2021/11/07 05:35:18;;;;;;;20.77;7.72;;;;;;;1.98;98.85;101713.86;1774612;80;21096;-44
2021/11/07 05:37:45;;;;;;;9.90;7.08;;;;;;;2.06;98.86;101708.16;1774335;80;20991;-44
2021/11/07 05:40:11;;;;;;;13.03;8.10;;;;;;;2.14;98.81;101705.08;1774434;80;21031;-44
2021/11/07 05:42:38;;;;;;;11.90;7.92;;;;;;;2.25;98.65;101709.69;1774379;80;21000;-43
2021/11/07 05:45:05;;;;;;;11.70;8.08;;;;;;;2.34;98.40;101701.48;1774492;80;20897;-43
2021/11/07 05:47:31;;;;;;;9.80;6.80;;;;;;;2.38;98.19;101711.88;1774193;80;21203;-44
2021/11/07 05:49:58;;;;;;;10.20;7.25;;;;;;;2.41;98.00;101706.88;1777798;79;20940;-44
2021/11/07 05:52:26;;;;;;;14.18;7.72;;;;;;;2.44;97.92;101703.57;1774419;80;21406;-43
2021/11/07 05:54:53;;;;;;;12.75;8.00;;;;;;;2.47;97.79;101705.34;1774321;80;20956;-43
2021/11/07 05:57:19;;;;;;;12.20;8.50;;;;;;;2.50;97.84;101711.45;1774260;80;20936;-44
2021/11/07 05:59:45;;;;;;;13.45;7.55;;;;;;;2.52;97.84;101715.31;1774474;80;21329;-44
2021/11/07 06:02:12;;;;;;;11.78;8.30;;;;;;;2.58;97.71;101716.83;1778212;80;21007;-44
2021/11/07 06:04:38;;;;;;;10.28;7.58;;;;;;;2.66;97.60;101715.83;1774508;80;20996;-44
2021/11/07 06:07:05;;;;;;;11.88;7.33;;;;;;;2.71;97.57;101717.70;1774430;80;20940;-44
2021/11/07 06:09:31;;;;;;;14.87;8.15;;;;;;;2.79;97.62;101717.11;1774585;80;20991;-44
2021/11/07 06:11:58;;;;;;;12.18;7.47;;;;;;;2.84;97.57;101707.91;1774646;80;21118;-43
2021/11/07 06:14:26;;;;;;;12.45;7.65;;;;;;;2.93;97.50;101712.45;1774339;80;20920;-44
2021/11/07 06:16:53;;;;;;;14.80;7.95;;;;;;;3.03;97.46;101715.77;1774346;80;20995;-43
2021/11/07 06:19:21;;;;;;;8.55;7.03;;;;;;;3.12;97.17;101717.77;1774321;80;21008;-44
2021/11/07 06:21:51;;;;;;;11.60;7.58;;;;;;;3.19;96.98;101717.56;1774682;80;21501;-44
2021/11/07 06:24:25;;;;;;;10.48;7.70;;;;;;;3.32;96.46;101718.82;1774737;80;21144;-44
2021/11/07 06:26:45;;;;;;;18.15;8.40;;;;;;;3.32;96.46;101718.82;1774279;80;20883;-44
2021/11/07 06:29:12;;;;;;;12.65;7.67;;;;;;;3.42;96.39;101720.84;1774477;80;21011;-44
2021/11/07 06:31:40;;;;;;;15.32;7.90;;;;;;;3.50;95.97;101710.84;1774352;80;20968;-43
2021/11/07 06:34:06;;;;;;;14.80;9.13;;;;;;;3.56;95.83;101702.06;1774336;80;20889;-44
2021/11/07 06:36:33;;;;;;;13.00;8.43;;;;;;;3.62;95.62;101712.91;1774744;80;21148;-43
2021/11/07 06:39:01;;;;;;;14.00;7.87;;;;;;;3.70;95.62;101718.73;1774429;80;20979;-43
2021/11/07 06:41:27;;;;;;;13.78;8.05;;;;;;;3.78;95.49;101709.96;1774367;80;21552;-44
2021/11/07 06:43:54;;;;;;;12.20;8.00;;;;;;;3.88;95.29;101716.23;1774351;80;20964;-44
2021/11/07 06:46:22;;;;;;;12.28;7.62;;;;;;;3.97;95.15;101716.52;1774569;80;20979;-44
2021/11/07 06:48:49;;;;;;;15.58;8.28;;;;;;;4.08;95.04;101712.98;1777547;80;21223;-44
2021/11/07 06:51:17;;;;;;;10.65;8.45;;;;;;;4.18;94.70;101703.87;1774577;80;20909;-44
2021/11/07 06:53:44;;;;;;;14.15;7.00;;;;;;;4.30;94.17;101700.34;1774329;80;21494;-43
2021/11/07 06:56:10;;;;;;;11.12;7.97;;;;;;;4.54;93.25;101714.66;1774189;80;20937;-44
2021/11/07 06:58:37;;;;;;;14.40;8.43;;;;;;;4.54;93.25;101714.66;1774375;80;20967;-44
2021/11/07 07:01:04;;;;;;;12.40;8.08;;;;;;;4.64;93.34;101715.78;1774418;80;22668;-44
2021/11/07 07:03:31;;;;;;;14.13;8.38;;;;;;;4.78;92.65;101713.56;1774155;80;20979;-44
2021/11/07 07:05:58;;;;;;;28.38;9.55;;;;;;;4.92;91.83;101714.31;1774298;80;20960;-44
2021/11/07 07:08:28;;;;;;;28.27;8.00;;;;;;;5.09;91.12;101715.61;1778115;80;20991;-44
2021/11/07 07:11:04;;;;;;;10.98;7.45;;;;;;;5.29;88.70;101717.80;1774103;80;20944;-44
2021/11/07 07:13:38;;;;;;;15.13;7.20;;;;;;;5.49;88.19;101717.40;1778316;80;21243;-44
2021/11/07 07:21:11;;;;;;;18.23;9.30;;;;;;;5.79;85.34;101709.48;1774259;80;20933;-44
2021/11/07 07:24:05;;;;;;;14.68;8.03;;;;;;;5.91;84.08;101705.02;1774178;80;21022;-44
2021/11/07 07:26:21;;;;;;;14.55;7.35;;;;;;;6.00;82.48;101704.34;1774586;79;21217;-44
2021/11/07 07:28:57;;;;;;;15.30;7.95;;;;;;;6.09;82.95;101691.73;1774134;80;21486;-43
2021/11/07 07:31:44;;;;;;;13.83;7.55;;;;;;;6.21;81.53;101693.67;1774290;80;20999;-44
2021/11/07 07:36:25;;;;;;;11.65;7.72;;;;;;;6.33;80.44;101697.75;1774377;80;21007;-44
2021/11/07 07:38:52;;;;;;;13.03;7.55;;;;;;;6.41;80.64;101700.88;1774177;80;21930;-44
2021/11/07 07:41:19;;;;;;;10.35;6.92;;;;;;;6.49;80.83;101692.91;1774190;80;21640;-44
2021/11/07 07:43:45;;;;;;;9.68;7.30;;;;;;;6.58;80.84;101684.05;1774287;80;21472;-43
2021/11/07 07:46:13;;;;;;;12.63;7.37;;;;;;;6.66;80.54;101698.35;1774290;80;21529;-44
2021/11/07 07:48:41;;;;;;;15.03;8.40;;;;;;;6.71;80.73;101692.01;1774335;80;20932;-43
2021/11/07 07:51:10;;;;;;;12.95;8.23;;;;;;;6.75;80.91;101695.08;1774240;80;22175;-44
2021/11/07 07:53:37;;;;;;;12.45;7.47;;;;;;;6.81;80.54;101689.14;1774468;80;21019;-44
2021/11/07 07:56:05;;;;;;;12.30;7.80;;;;;;;6.88;79.64;101699.58;1777875;80;20984;-43
2021/11/07 07:58:32;;;;;;;10.45;7.75;;;;;;;6.96;79.62;101699.70;1774467;80;21486;-44
2021/11/07 08:00:58;;;;;;;12.37;8.58;;;;;;;7.01;78.63;101706.23;1777615;80;21580;-44
2021/11/07 08:03:25;;;;;;;18.52;8.53;;;;;;;7.10;77.50;101699.08;1774427;80;21885;-44
2021/11/07 08:05:51;;;;;;;19.37;9.20;;;;;;;7.18;76.72;101702.63;1774366;80;20967;-44
2021/11/07 08:08:18;;;;;;;15.58;8.53;;;;;;;7.25;76.36;101702.31;1774704;80;20949;-44
2021/11/07 08:10:46;;;;;;;10.55;7.60;;;;;;;7.36;76.03;101696.89;1777845;80;21007;-44
2021/11/07 08:13:13;;;;;;;11.40;8.08;;;;;;;7.45;75.07;101691.89;1774350;80;20960;-44
2021/11/07 08:15:41;;;;;;;10.23;7.05;;;;;;;7.57;74.71;101680.00;1774205;80;20988;-44
2021/11/07 08:18:08;;;;;;;12.40;6.85;;;;;;;7.68;75.45;101678.42;1774095;80;21548;-43
2021/11/07 08:20:35;;;;;;;12.33;8.00;;;;;;;7.84;74.40;101669.20;1774188;80;20976;-44
2021/11/07 08:23:01;;;;;;;12.00;8.23;;;;;;;7.97;73.73;101666.34;1777616;80;20995;-44
2021/11/07 08:25:28;;;;;;;13.03;8.23;;;;;;;8.13;73.99;101674.23;1774260;80;21517;-44
2021/11/07 08:28:00;;;;;;;9.75;7.03;;;;;;;8.22;72.54;101668.32;1774413;80;21969;-44
2021/11/07 08:30:26;;;;;;;10.90;8.35;;;;;;;8.30;72.55;101668.84;1774431;80;20955;-44
2021/11/07 08:32:54;;;;;;;11.85;7.92;;;;;;;8.32;71.49;101668.44;1774227;80;20936;-44
2021/11/07 08:35:21;;;;;;;11.70;8.53;;;;;;;8.35;72.86;101653.42;1774408;80;21007;-44
2021/11/07 08:38:04;;;;;;;12.00;8.13;;;;;;;8.46;72.64;101649.63;1777617;80;20928;-44
2021/11/07 08:40:30;;;;;;;12.35;8.93;;;;;;;8.61;73.24;101645.94;1774162;80;21811;-44
2021/11/07 08:43:01;;;;;;;10.72;8.43;;;;;;;8.78;73.15;101646.52;1774266;80;20964;-44
2021/11/07 09:02:04;;;;;;;14.35;8.00;;;;;;;9.85;69.11;101619.99;1757735;81;21122;-44
2021/11/07 09:07:00;;;;;;;11.95;7.47;;;;;;;10.09;69.16;101613.13;1757832;81;21450;-44
2021/11/07 09:09:17;;;;;;;11.38;7.53;;;;;;;10.33;68.40;101612.73;1756132;81;21015;-44
2021/11/07 09:11:53;;;;;;;10.60;6.00;;;;;;;10.55;68.67;101608.91;1757357;81;21003;-44
2021/11/07 09:14:26;;;;;;;8.53;6.17;;;;;;;10.61;64.93;101603.30;1757439;81;21155;-44
2021/11/07 09:16:53;;;;;;;10.38;5.97;;;;;;;10.59;65.23;101601.14;1757236;81;20916;-44
2021/11/07 09:19:25;;;;;;;11.25;6.00;;;;;;;10.67;65.07;101599.85;1757411;81;20917;-44
2021/11/07 09:21:53;;;;;;;8.43;5.30;;;;;;;10.78;64.25;101594.66;1757461;81;20940;-44
2021/11/07 09:24:31;;;;;;;6.67;5.03;;;;;;;10.77;64.36;101590.35;1757173;81;21008;-44
2021/11/07 09:26:55;;;;;;;9.68;4.97;;;;;;;10.79;63.56;101587.33;1756756;81;20968;-45
2021/11/07 09:32:16;;;;;;;6.35;5.55;;;;;;;10.75;64.79;101588.20;1738172;81;21018;-44
2021/11/07 09:37:38;;;;;;;6.17;5.30;;;;;;;11.01;62.92;101575.18;1738351;81;21007;-44
2021/11/07 09:39:59;;;;;;;10.55;5.15;;;;;;;11.08;62.83;101569.56;1756336;81;21155;-45
2021/11/07 09:42:34;;;;;;;11.03;6.12;;;;;;;11.11;62.07;101561.77;1755067;81;21483;-44
2021/11/07 09:44:56;;;;;;;10.82;6.72;;;;;;;11.07;62.96;101562.20;1746953;82;20960;-44
2021/11/07 09:47:24;;;;;;;9.28;6.10;;;;;;;11.14;63.09;101555.73;1749335;82;20975;-44
2021/11/07 09:49:51;;;;;;;8.23;6.10;;;;;;;11.17;63.87;101552.67;1749122;82;21463;-44
2021/11/07 09:52:24;;;;;;;8.63;5.45;;;;;;;11.18;63.64;101548.37;1749355;81;21161;-44
2021/11/07 09:54:54;;;;;;;7.90;5.80;;;;;;;11.17;63.81;101547.49;1742341;82;20980;-44
2021/11/07 09:57:22;;;;;;;7.22;4.95;;;;;;;11.30;64.14;101540.53;1745554;82;21042;-44
2021/11/07 09:59:51;;;;;;;6.25;4.90;;;;;;;11.37;63.04;101540.08;1745642;82;21030;-44
2021/11/07 10:02:15;;;;;;;7.37;5.22;;;;;;;11.40;62.36;101542.66;1745694;82;21006;-44
2021/11/07 10:04:42;;;;;;;8.68;5.70;;;;;;;11.40;62.11;101532.73;1746388;82;21117;-45
2021/11/07 10:07:19;;;;;;;7.28;4.90;;;;;;;11.35;62.62;101524.97;1745511;82;20991;-45
2021/11/07 10:09:51;;;;;;;20.75;5.83;;;;;;;11.47;62.76;101525.34;1744547;82;20909;-45
2021/11/07 10:12:30;;;;;;;7.87;4.87;;;;;;;11.56;62.11;101521.84;1745343;82;20992;-44
2021/11/07 10:14:56;;;;;;;6.70;5.05;;;;;;;11.57;61.76;101512.75;1744726;82;20952;-44
2021/11/07 10:17:40;;;;;;;6.47;5.00;;;;;;;11.56;61.60;101503.24;1740517;81;21151;-45
2021/11/07 10:23:16;;;;;;;5.80;5.00;;;;;;;11.46;61.61;101497.70;1745553;81;20980;-43
2021/11/07 10:25:56;;;;;;;5.05;4.40;;;;;;;11.42;61.89;101491.66;1745719;82;20928;-44
2021/11/07 10:28:34;;;;;;;12.20;4.80;;;;;;;11.61;62.52;101488.97;1740378;82;20971;-44
2021/11/07 10:31:20;;;;;;;8.90;4.92;;;;;;;11.90;60.59;101481.41;1744981;82;21144;-45
2021/11/07 10:52:05;;;;;;;8.15;4.58;;;;;;;12.30;58.70;101462.95;1745543;82;21050;-45
2021/11/07 10:53:45;;;;;;;5.60;4.12;;;;;;;12.25;58.03;101449.16;1715945;82;20967;-45
2021/11/07 10:56:12;;;;;;;13.68;4.42;;;;;;;12.21;57.39;101444.42;1727244;81;20972;-45
2021/11/07 10:58:46;;;;;;;9.50;4.45;;;;;;;12.32;57.71;101445.62;1757059;81;21067;-45
2021/11/07 11:01:18;;;;;;;12.58;4.12;;;;;;;12.33;57.10;101447.34;1756814;81;21083;-43
2021/11/07 11:03:46;;;;;;;8.50;4.40;;;;;;;12.16;56.44;101451.82;1729872;81;20999;-43
2021/11/07 11:06:13;;;;;;;15.45;4.30;;;;;;;12.01;56.33;101445.03;1742599;81;20959;-43
2021/11/07 11:08:55;;;;;;;7.80;4.08;;;;;;;11.86;57.01;101437.75;1757237;81;20932;-43
2021/11/07 11:11:34;;;;;;;6.78;4.83;;;;;;;11.74;57.13;101437.87;1756956;81;20896;-43
2021/11/07 11:14:16;;;;;;;14.33;5.10;;;;;;;11.77;58.01;101442.61;1757026;81;21934;-43
2021/11/07 11:16:49;;;;;;;10.32;5.10;;;;;;;11.68;58.29;101434.88;1753248;81;20954;-44
2021/11/07 11:19:40;;;;;;;7.42;5.03;;;;;;;11.71;58.06;101428.37;1756182;81;20924;-43
2021/11/07 11:22:13;;;;;;;8.03;5.22;;;;;;;11.67;57.63;101430.56;1754961;81;20999;-47
2021/11/07 11:27:35;;;;;;;16.37;6.95;;;;;;;11.57;59.47;101431.52;1757010;81;21003;-43
2021/11/07 11:30:21;;;;;;;13.18;6.25;;;;;;;11.63;60.67;101423.69;1755891;81;21454;-44
2021/11/07 11:32:51;;;;;;;;;;;;;;;11.68;60.42;101418.47;1758850;81;20881;-45
2021/11/07 11:35:35;;;;;;;10.35;5.08;;;;;;;11.87;60.76;101411.39;1727647;81;20126;-45
2021/11/07 11:38:06;;;;;;;8.25;5.85;;;;;;;11.96;58.28;101406.11;1756651;81;20964;-45
2021/11/07 11:40:43;;;;;;;12.70;5.78;;;;;;;11.84;58.11;101390.67;1756212;81;21647;-45
2021/11/07 11:43:09;;;;;;;12.23;5.42;;;;;;;11.77;59.31;101392.03;1730207;81;21044;-45
2021/11/07 11:45:36;;;;;;;22.05;6.33;;;;;;;11.85;57.73;101401.47;1756266;81;21010;-45
2021/11/07 11:50:57;;;;;;;14.23;6.42;;;;;;;11.43;58.98;101404.39;1728908;81;21210;-45
2021/11/07 11:56:36;;;;;;;10.10;6.33;;;;;;;11.18;60.06;101407.13;1742820;81;20925;-45
2021/11/07 11:59:06;;;;;;;13.93;5.67;;;;;;;11.02;60.78;101403.32;1734140;82;21458;-45
2021/11/07 12:01:35;;;;;;;6.05;4.90;;;;;;;10.96;61.70;101399.89;1734590;82;20925;-44
2021/11/07 12:04:11;;;;;;;25.92;4.97;;;;;;;11.00;60.49;101400.33;1734991;82;21205;-45
2021/11/07 12:06:46;;;;;;;16.23;5.65;;;;;;;10.91;60.30;101403.37;1734760;82;20898;-45
2021/11/07 12:09:54;;;;;;;8.70;5.33;;;;;;;10.89;59.56;101396.49;1734132;82;20902;-45
2021/11/07 12:12:28;;;;;;;11.05;5.78;;;;;;;10.82;60.23;101394.36;1734445;82;21511;-45
2021/11/07 12:17:39;;;;;;;11.63;5.62;;;;;;;10.44;60.94;101397.52;1735117;82;21135;-45
2021/11/07 12:20:27;;;;;;;11.22;5.22;;;;;;;10.31;61.54;101387.59;1735055;82;20910;-44
2021/11/07 12:23:23;;;;;;;8.10;5.55;;;;;;;10.17;62.21;101381.58;1735231;81;20936;-44
2021/11/07 12:25:51;;;;;;;11.83;5.20;;;;;;;10.05;62.65;101388.51;1735331;81;21046;-45
2021/11/07 12:28:18;;;;;;;12.65;5.90;;;;;;;9.94;62.87;101385.05;1714196;82;20984;-43
2021/11/07 12:30:44;;;;;;;12.88;6.67;;;;;;;9.87;63.69;101393.69;1735245;82;21120;-43
2021/11/07 12:33:20;;;;;;;14.23;6.90;;;;;;;9.82;64.32;101386.37;1735148;82;20964;-43
2021/11/07 12:35:58;;;;;;;20.23;6.90;;;;;;;9.81;64.62;101383.36;1738832;81;20929;-43
2021/11/07 12:41:27;;;;;;;14.80;6.22;;;;;;;9.83;64.93;101381.63;1714232;82;20976;-44
2021/11/07 12:44:02;;;;;;;18.77;6.70;;;;;;;9.85;63.47;101371.73;1735049;82;21131;-44
2021/11/07 12:46:44;;;;;;;13.15;5.97;;;;;;;9.87;62.58;101367.83;1735130;82;20972;-44
2021/11/07 12:49:28;;;;;;;12.73;5.70;;;;;;;9.84;62.89;101355.75;1735512;82;21011;-44